sensor_id;sensor_type;location;lat;lon;timestamp;pressure;altitude;pressure_sealevel;temperature;humidity
9893;BME280;4985;49.092;8.542;2023-03-03T00:00:58;99593.78;;;12.80;52.68
9893;BME280;4985;49.092;8.542;2023-03-03T00:03:25;99602.53;;;12.80;52.67
9893;BME280;4985;49.092;8.542;2023-03-03T00:05:52;99598.91;;;12.81;52.65
9893;BME280;4985;49.092;8.542;2023-03-03T00:08:19;99607.00;;;12.80;52.67
9893;BME280;4985;49.092;8.542;2023-03-03T00:10:48;99591.16;;;12.80;52.66
9893;BME280;4985;49.092;8.542;2023-03-03T00:13:16;99597.25;;;12.80;52.67
9893;BME280;4985;49.092;8.542;2023-03-03T00:15:43;99593.94;;;12.78;52.65
9893;BME280;4985;49.092;8.542;2023-03-03T00:18:20;99591.28;;;12.78;52.64
9893;BME280;4985;49.092;8.542;2023-03-03T00:20:51;99597.25;;;12.80;52.64
9893;BME280;4985;49.092;8.542;2023-03-03T00:23:24;99600.84;;;12.79;52.64
9893;BME280;4985;49.092;8.542;2023-03-03T00:25:53;99602.53;;;12.80;52.64
9893;BME280;4985;49.092;8.542;2023-03-03T00:28:25;99596.44;;;12.80;52.64
9893;BME280;4985;49.092;8.542;2023-03-03T00:30:54;99608.78;;;12.79;52.64
9893;BME280;4985;49.092;8.542;2023-03-03T00:33:29;99606.13;;;12.79;52.66
9893;BME280;4985;49.092;8.542;2023-03-03T00:36:09;99599.06;;;12.80;52.64
9893;BME280;4985;49.092;8.542;2023-03-03T00:38:47;99599.88;;;12.80;52.64
9893;BME280;4985;49.092;8.542;2023-03-03T00:41:19;99605.19;;;12.80;52.62
9893;BME280;4985;49.092;8.542;2023-03-03T00:43:47;99603.50;;;12.79;52.62
9893;BME280;4985;49.092;8.542;2023-03-03T00:46:16;99610.59;;;12.79;52.64
9893;BME280;4985;49.092;8.542;2023-03-03T00:48:44;99603.50;;;12.79;52.64
9893;BME280;4985;49.092;8.542;2023-03-03T00:51:24;99603.66;;;12.78;52.63
9893;BME280;4985;49.092;8.542;2023-03-03T00:53:52;99601.03;;;12.78;52.63
9893;BME280;4985;49.092;8.542;2023-03-03T00:56:20;99594.75;;;12.79;52.65
9893;BME280;4985;49.092;8.542;2023-03-03T00:58:47;99600.03;;;12.79;52.64
9893;BME280;4985;49.092;8.542;2023-03-03T01:01:13;99607.13;;;12.78;52.65
9893;BME280;4985;49.092;8.542;2023-03-03T01:03:40;99605.50;;;12.77;52.65
9893;BME280;4985;49.092;8.542;2023-03-03T01:06:07;99598.72;;;12.75;52.65
9893;BME280;4985;49.092;8.542;2023-03-03T01:08:33;99597.37;;;12.79;52.64
9893;BME280;4985;49.092;8.542;2023-03-03T01:11:04;99604.50;;;12.78;52.64
9893;BME280;4985;49.092;8.542;2023-03-03T01:13:34;99607.13;;;12.78;52.62
9893;BME280;4985;49.092;8.542;2023-03-03T01:16:02;99612.41;;;12.78;52.62
9893;BME280;4985;49.092;8.542;2023-03-03T01:18:29;99603.66;;;12.78;52.61
9893;BME280;4985;49.092;8.542;2023-03-03T01:20:55;99590.00;;;12.74;52.63
9893;BME280;4985;49.092;8.542;2023-03-03T01:23:22;99606.31;;;12.78;52.63
9893;BME280;4985;49.092;8.542;2023-03-03T01:25:48;99607.13;;;12.78;52.62
9893;BME280;4985;49.092;8.542;2023-03-03T01:28:15;99610.78;;;12.77;52.62
9893;BME280;4985;49.092;8.542;2023-03-03T01:30:43;99605.50;;;12.77;52.61
9893;BME280;4985;49.092;8.542;2023-03-03T01:33:10;99604.66;;;12.77;52.62
9893;BME280;4985;49.092;8.542;2023-03-03T01:35:36;99605.50;;;12.77;52.60
9893;BME280;4985;49.092;8.542;2023-03-03T01:38:05;99593.28;;;12.76;52.61
9893;BME280;4985;49.092;8.542;2023-03-03T01:40:32;99593.28;;;12.76;52.61
9893;BME280;4985;49.092;8.542;2023-03-03T01:42:59;99600.38;;;12.76;52.62
9893;BME280;4985;49.092;8.542;2023-03-03T01:45:28;99596.91;;;12.75;52.62
9893;BME280;4985;49.092;8.542;2023-03-03T01:47:59;99601.22;;;12.76;52.61
9893;BME280;4985;49.092;8.542;2023-03-03T01:50:34;99596.91;;;12.75;52.62
9893;BME280;4985;49.092;8.542;2023-03-03T01:53:04;99590.00;;;12.74;52.63
9893;BME280;4985;49.092;8.542;2023-03-03T01:55:34;99591.63;;;12.75;52.63
9893;BME280;4985;49.092;8.542;2023-03-03T01:58:04;99596.91;;;12.75;52.62
9893;BME280;4985;49.092;8.542;2023-03-03T02:00:34;99583.88;;;12.74;52.62
9893;BME280;4985;49.092;8.542;2023-03-03T02:03:03;99577.78;;;12.73;52.63
9893;BME280;4985;49.092;8.542;2023-03-03T02:05:31;99590.00;;;12.74;52.63
9893;BME280;4985;49.092;8.542;2023-03-03T02:07:58;99587.53;;;12.73;52.64
9893;BME280;4985;49.092;8.542;2023-03-03T02:10:25;99581.25;;;12.74;52.63
9893;BME280;4985;49.092;8.542;2023-03-03T02:12:55;99572.03;;;12.70;52.62
9893;BME280;4985;49.092;8.542;2023-03-03T02:15:24;99580.41;;;12.73;52.64
9893;BME280;4985;49.092;8.542;2023-03-03T02:17:52;99580.41;;;12.73;52.62
9893;BME280;4985;49.092;8.542;2023-03-03T02:20:30;99581.41;;;12.72;52.63
9893;BME280;4985;49.092;8.542;2023-03-03T02:23:03;99589.34;;;12.72;52.64
9893;BME280;4985;49.092;8.542;2023-03-03T02:25:36;99585.88;;;12.72;52.63
9893;BME280;4985;49.092;8.542;2023-03-03T02:28:07;99586.69;;;12.72;52.63
9893;BME280;4985;49.092;8.542;2023-03-03T02:30:37;99579.78;;;12.71;52.62
9893;BME280;4985;49.092;8.542;2023-03-03T02:33:05;99586.69;;;12.72;52.63
9893;BME280;4985;49.092;8.542;2023-03-03T02:35:35;99589.34;;;12.72;52.62
9893;BME280;4985;49.092;8.542;2023-03-03T02:38:08;99591.97;;;12.72;52.63
9893;BME280;4985;49.092;8.542;2023-03-03T02:40:42;99595.63;;;12.71;52.62
9893;BME280;4985;49.092;8.542;2023-03-03T02:43:15;99594.78;;;12.71;52.62
9893;BME280;4985;49.092;8.542;2023-03-03T02:45:44;99592.97;;;12.71;52.60
9893;BME280;4985;49.092;8.542;2023-03-03T02:48:11;99597.25;;;12.72;52.60
9893;BME280;4985;49.092;8.542;2023-03-03T02:50:37;99599.25;;;12.70;52.61
9893;BME280;4985;49.092;8.542;2023-03-03T02:53:04;99599.25;;;12.70;52.61
9893;BME280;4985;49.092;8.542;2023-03-03T02:55:30;99602.91;;;12.69;52.64
9893;BME280;4985;49.092;8.542;2023-03-03T02:57:57;99599.25;;;12.70;52.63
9893;BME280;4985;49.092;8.542;2023-03-03T03:00:25;99587.06;;;12.61;52.61
9893;BME280;4985;49.092;8.542;2023-03-03T03:02:51;99593.62;;;12.65;52.61
9893;BME280;4985;49.092;8.542;2023-03-03T03:05:18;99592.31;;;12.69;52.63
9893;BME280;4985;49.092;8.542;2023-03-03T03:07:44;99595.78;;;12.70;52.63
9893;BME280;4985;49.092;8.542;2023-03-03T03:10:11;99600.41;;;12.68;52.65
9893;BME280;4985;49.092;8.542;2023-03-03T03:12:37;99594.28;;;12.67;52.65
9893;BME280;4985;49.092;8.542;2023-03-03T03:15:05;99596.09;;;12.67;52.65
9893;BME280;4985;49.092;8.542;2023-03-03T03:17:35;99603.22;;;12.66;52.67
9893;BME280;4985;49.092;8.542;2023-03-03T03:20:02;99603.03;;;12.68;52.65
9893;BME280;4985;49.092;8.542;2023-03-03T03:22:29;99601.38;;;12.67;52.63
9893;BME280;4985;49.092;8.542;2023-03-03T03:24:56;99599.56;;;12.67;52.64
9893;BME280;4985;49.092;8.542;2023-03-03T03:27:22;99604.84;;;12.67;52.65
9893;BME280;4985;49.092;8.542;2023-03-03T03:29:49;99611.13;;;12.66;52.64
9893;BME280;4985;49.092;8.542;2023-03-03T03:32:15;99607.50;;;12.67;52.63
9893;BME280;4985;49.092;8.542;2023-03-03T03:34:43;99607.66;;;12.66;52.63
9893;BME280;4985;49.092;8.542;2023-03-03T03:37:10;99607.66;;;12.66;52.63
9893;BME280;4985;49.092;8.542;2023-03-03T03:39:36;99616.41;;;12.66;52.63
9893;BME280;4985;49.092;8.542;2023-03-03T03:42:03;99611.13;;;12.66;52.64
9893;BME280;4985;49.092;8.542;2023-03-03T03:44:30;99604.19;;;12.65;52.63
9893;BME280;4985;49.092;8.542;2023-03-03T03:46:56;99607.66;;;12.66;52.64
9893;BME280;4985;49.092;8.542;2023-03-03T03:49:23;99615.75;;;12.64;52.63
9893;BME280;4985;49.092;8.542;2023-03-03T03:51:51;99605.19;;;12.64;52.63
9893;BME280;4985;49.092;8.542;2023-03-03T03:54:17;99613.13;;;12.64;52.63
9893;BME280;4985;49.092;8.542;2023-03-03T03:56:44;99612.13;;;12.65;52.63
9893;BME280;4985;49.092;8.542;2023-03-03T03:59:10;99611.47;;;12.63;52.64
9893;BME280;4985;49.092;8.542;2023-03-03T04:01:37;99614.13;;;12.63;52.64
9893;BME280;4985;49.092;8.542;2023-03-03T04:04:04;99614.13;;;12.63;52.63
9893;BME280;4985;49.092;8.542;2023-03-03T04:06:30;99614.94;;;12.64;52.62
9893;BME280;4985;49.092;8.542;2023-03-03T04:08:59;99608.84;;;12.63;52.62
9893;BME280;4985;49.092;8.542;2023-03-03T04:11:25;99618.56;;;12.63;52.61
9893;BME280;4985;49.092;8.542;2023-03-03T04:13:52;99616.75;;;12.63;52.62
9893;BME280;4985;49.092;8.542;2023-03-03T04:16:18;99615.47;;;12.59;52.62
9893;BME280;4985;49.092;8.542;2023-03-03T04:18:45;99623.84;;;12.63;52.63
9893;BME280;4985;49.092;8.542;2023-03-03T04:21:12;99615.28;;;12.61;52.63
9893;BME280;4985;49.092;8.542;2023-03-03T04:23:39;99621.38;;;12.61;52.65
9893;BME280;4985;49.092;8.542;2023-03-03T04:26:07;99628.31;;;12.62;52.63
9893;BME280;4985;49.092;8.542;2023-03-03T04:28:34;99627.84;;;12.59;52.64
9893;BME280;4985;49.092;8.542;2023-03-03T04:31:01;99634.78;;;12.60;52.65
9893;BME280;4985;49.092;8.542;2023-03-03T04:33:28;99632.28;;;12.58;52.64
9893;BME280;4985;49.092;8.542;2023-03-03T04:35:55;99631.12;;;12.61;52.65
9893;BME280;4985;49.092;8.542;2023-03-03T04:38:21;99628.66;;;12.59;52.65
9893;BME280;4985;49.092;8.542;2023-03-03T04:40:48;99629.50;;;12.60;52.65
9893;BME280;4985;49.092;8.542;2023-03-03T04:43:16;99631.31;;;12.59;52.64
9893;BME280;4985;49.092;8.542;2023-03-03T04:45:43;99623.38;;;12.59;52.65
9893;BME280;4985;49.092;8.542;2023-03-03T04:48:09;99627.84;;;12.59;52.65
9893;BME280;4985;49.092;8.542;2023-03-03T04:50:36;99633.94;;;12.59;52.65
9893;BME280;4985;49.092;8.542;2023-03-03T04:53:02;99626.34;;;12.56;52.64
9893;BME280;4985;49.092;8.542;2023-03-03T04:55:29;99640.22;;;12.58;52.65
9893;BME280;4985;49.092;8.542;2023-03-03T04:57:55;99628.84;;;12.58;52.65
9893;BME280;4985;49.092;8.542;2023-03-03T05:00:23;99624.69;;;12.55;52.66
9893;BME280;4985;49.092;8.542;2023-03-03T05:02:50;99622.03;;;12.55;52.66
9893;BME280;4985;49.092;8.542;2023-03-03T05:05:17;99621.06;;;12.56;52.66
9893;BME280;4985;49.092;8.542;2023-03-03T05:07:43;99622.03;;;12.55;52.67
9893;BME280;4985;49.092;8.542;2023-03-03T05:10:10;99620.22;;;12.56;52.66
9893;BME280;4985;49.092;8.542;2023-03-03T05:12:37;99621.22;;;12.54;52.67
9893;BME280;4985;49.092;8.542;2023-03-03T05:15:05;99622.03;;;12.55;52.67
9893;BME280;4985;49.092;8.542;2023-03-03T05:17:33;99635.25;;;12.55;52.67
9893;BME280;4985;49.092;8.542;2023-03-03T05:19:59;99625.69;;;12.54;52.66
9893;BME280;4985;49.092;8.542;2023-03-03T05:22:26;99636.25;;;12.54;52.67
9893;BME280;4985;49.092;8.542;2023-03-03T05:24:52;99641.53;;;12.54;52.67
9893;BME280;4985;49.092;8.542;2023-03-03T05:27:19;99637.06;;;12.54;52.65
9893;BME280;4985;49.092;8.542;2023-03-03T05:29:45;99632.78;;;12.53;52.66
9893;BME280;4985;49.092;8.542;2023-03-03T05:32:12;99642.53;;;12.53;52.65
9893;BME280;4985;49.092;8.542;2023-03-03T05:34:40;99643.34;;;12.53;52.65
9893;BME280;4985;49.092;8.542;2023-03-03T05:37:07;99650.63;;;12.51;52.68
9893;BME280;4985;49.092;8.542;2023-03-03T05:39:34;99650.44;;;12.53;52.67
9893;BME280;4985;49.092;8.542;2023-03-03T05:42:00;99657.72;;;12.51;52.67
9893;BME280;4985;49.092;8.542;2023-03-03T05:44:27;99658.53;;;12.51;52.68
9893;BME280;4985;49.092;8.542;2023-03-03T05:46:54;99656.88;;;12.50;52.68
9893;BME280;4985;49.092;8.542;2023-03-03T05:49:21;99658.72;;;12.50;52.69
9893;BME280;4985;49.092;8.542;2023-03-03T05:51:49;99656.06;;;12.50;52.71
9893;BME280;4985;49.092;8.542;2023-03-03T05:54:16;99662.16;;;12.50;52.69
9893;BME280;4985;49.092;8.542;2023-03-03T05:56:42;99666.63;;;12.50;52.70
9893;BME280;4985;49.092;8.542;2023-03-03T05:59:09;99676.38;;;12.49;52.72
9893;BME280;4985;49.092;8.542;2023-03-03T06:01:36;99667.63;;;12.49;52.72
9893;BME280;4985;49.092;8.542;2023-03-03T06:04:02;99670.25;;;12.49;52.71
9893;BME280;4985;49.092;8.542;2023-03-03T06:06:29;99669.59;;;12.47;52.73
9893;BME280;4985;49.092;8.542;2023-03-03T06:08:57;99671.09;;;12.49;52.71
9893;BME280;4985;49.092;8.542;2023-03-03T06:11:23;99678.19;;;12.49;52.70
9893;BME280;4985;49.092;8.542;2023-03-03T06:13:50;99682.63;;;12.48;52.73
9893;BME280;4985;49.092;8.542;2023-03-03T06:16:17;99676.53;;;12.48;52.72
9893;BME280;4985;49.092;8.542;2023-03-03T06:18:43;99684.47;;;12.48;52.73
9893;BME280;4985;49.092;8.542;2023-03-03T06:21:10;99685.44;;;12.47;52.73
9893;BME280;4985;49.092;8.542;2023-03-03T06:23:36;99693.38;;;12.47;52.73
9893;BME280;4985;49.092;8.542;2023-03-03T06:26:04;99698.66;;;12.47;52.73
9893;BME280;4985;49.092;8.542;2023-03-03T06:28:31;99699.66;;;12.46;52.74
9893;BME280;4985;49.092;8.542;2023-03-03T06:30:57;99704.94;;;12.46;52.73
9893;BME280;4985;49.092;8.542;2023-03-03T06:33:24;99703.13;;;12.46;52.73
9893;BME280;4985;49.092;8.542;2023-03-03T06:35:52;99702.28;;;12.46;52.75
9893;BME280;4985;49.092;8.542;2023-03-03T06:38:19;99708.53;;;12.45;52.77
9893;BME280;4985;49.092;8.542;2023-03-03T06:40:46;99709.34;;;12.45;52.77
9893;BME280;4985;49.092;8.542;2023-03-03T06:43:14;99706.72;;;12.45;52.76
9893;BME280;4985;49.092;8.542;2023-03-03T06:45:40;99712.97;;;12.44;52.76
9893;BME280;4985;49.092;8.542;2023-03-03T06:48:08;99706.56;;;12.39;52.79
9893;BME280;4985;49.092;8.542;2023-03-03T06:50:34;99717.44;;;12.44;52.78
9893;BME280;4985;49.092;8.542;2023-03-03T06:53:06;99718.25;;;12.44;52.76
9893;BME280;4985;49.092;8.542;2023-03-03T06:55:35;99721.06;;;12.43;52.78
9893;BME280;4985;49.092;8.542;2023-03-03T06:58:07;99725.69;;;12.41;52.81
9893;BME280;4985;49.092;8.542;2023-03-03T07:00:37;99732.63;;;12.42;52.80
9893;BME280;4985;49.092;8.542;2023-03-03T07:03:07;99737.91;;;12.42;52.80
9893;BME280;4985;49.092;8.542;2023-03-03T07:05:37;99735.28;;;12.42;52.81
9893;BME280;4985;49.092;8.542;2023-03-03T07:08:08;99724.88;;;12.40;52.82
9893;BME280;4985;49.092;8.542;2023-03-03T07:10:38;99726.53;;;12.41;52.82
9893;BME280;4985;49.092;8.542;2023-03-03T07:13:16;99737.91;;;12.42;52.81
9893;BME280;4985;49.092;8.542;2023-03-03T07:15:44;99725.69;;;12.41;52.81
9893;BME280;4985;49.092;8.542;2023-03-03T07:18:24;99721.25;;;12.41;52.81
9893;BME280;4985;49.092;8.542;2023-03-03T07:20:54;99730.97;;;12.41;52.82
9893;BME280;4985;49.092;8.542;2023-03-03T07:23:23;99725.03;;;12.39;52.82
9893;BME280;4985;49.092;8.542;2023-03-03T07:25:51;99727.69;;;12.39;52.85
9893;BME280;4985;49.092;8.542;2023-03-03T07:28:21;99733.78;;;12.39;52.86
9893;BME280;4985;49.092;8.542;2023-03-03T07:30:50;99728.50;;;12.39;52.84
9893;BME280;4985;49.092;8.542;2023-03-03T07:33:22;99743.53;;;12.39;52.85
9893;BME280;4985;49.092;8.542;2023-03-03T07:35:51;99739.25;;;12.38;52.87
9893;BME280;4985;49.092;8.542;2023-03-03T07:38:30;99747.97;;;12.38;53.09
9893;BME280;4985;49.092;8.542;2023-03-03T07:40:58;99751.44;;;12.39;53.03
9893;BME280;4985;49.092;8.542;2023-03-03T07:43:38;99754.91;;;12.39;52.99
9893;BME280;4985;49.092;8.542;2023-03-03T07:46:34;99749.16;;;12.36;52.96
9893;BME280;4985;49.092;8.542;2023-03-03T07:49:16;99761.00;;;12.40;52.93
9893;BME280;4985;49.092;8.542;2023-03-03T07:51:47;99757.72;;;12.38;52.96
9893;BME280;4985;49.092;8.542;2023-03-03T07:54:21;99764.66;;;12.39;52.94
9893;BME280;4985;49.092;8.542;2023-03-03T07:56:54;99762.00;;;12.39;52.95
9893;BME280;4985;49.092;8.542;2023-03-03T07:59:24;99765.63;;;12.38;52.96
9893;BME280;4985;49.092;8.542;2023-03-03T08:01:54;99763.81;;;12.38;52.97
9893;BME280;4985;49.092;8.542;2023-03-03T08:04:27;99776.38;;;12.36;52.97
9893;BME280;4985;49.092;8.542;2023-03-03T08:06:56;99759.53;;;12.37;52.95
9893;BME280;4985;49.092;8.542;2023-03-03T08:09:36;99772.75;;;12.37;52.96
9893;BME280;4985;49.092;8.542;2023-03-03T08:12:33;99773.56;;;12.38;52.97
9893;BME280;4985;49.092;8.542;2023-03-03T08:15:16;99771.09;;;12.36;53.01
9893;BME280;4985;49.092;8.542;2023-03-03T08:17:46;99771.91;;;12.37;53.00
9893;BME280;4985;49.092;8.542;2023-03-03T08:20:41;99765.81;;;12.36;52.99
9893;BME280;4985;49.092;8.542;2023-03-03T08:23:10;99769.28;;;12.37;52.99
9893;BME280;4985;49.092;8.542;2023-03-03T08:25:37;99769.28;;;12.37;53.00
9893;BME280;4985;49.092;8.542;2023-03-03T08:28:04;99771.91;;;12.37;53.00
9893;BME280;4985;49.092;8.542;2023-03-03T08:30:30;99765.28;;;12.33;52.98
9893;BME280;4985;49.092;8.542;2023-03-03T08:32:58;99780.81;;;12.36;53.01
9893;BME280;4985;49.092;8.542;2023-03-03T08:35:25;99774.72;;;12.35;53.00
9893;BME280;4985;49.092;8.542;2023-03-03T08:37:52;99775.53;;;12.36;53.02
9893;BME280;4985;49.092;8.542;2023-03-03T08:40:18;99774.84;;;12.34;53.02
9893;BME280;4985;49.092;8.542;2023-03-03T08:42:45;99772.22;;;12.34;53.03
9893;BME280;4985;49.092;8.542;2023-03-03T08:45:12;99773.03;;;12.34;53.05
9893;BME280;4985;49.092;8.542;2023-03-03T08:47:38;99771.56;;;12.32;53.07
9893;BME280;4985;49.092;8.542;2023-03-03T08:50:08;99777.50;;;12.34;53.06
9893;BME280;4985;49.092;8.542;2023-03-03T08:52:35;99774.03;;;12.33;53.05
9893;BME280;4985;49.092;8.542;2023-03-03T08:55:01;99775.84;;;12.33;53.07
9893;BME280;4985;49.092;8.542;2023-03-03T08:57:28;99777.50;;;12.34;53.07
9893;BME280;4985;49.092;8.542;2023-03-03T08:59:54;99778.31;;;12.34;53.07
9893;BME280;4985;49.092;8.542;2023-03-03T09:02:21;99789.72;;;12.35;53.04
9893;BME280;4985;49.092;8.542;2023-03-03T09:04:48;99791.53;;;12.34;53.02
9893;BME280;4985;49.092;8.542;2023-03-03T09:07:16;99792.38;;;12.35;53.03
9893;BME280;4985;49.092;8.542;2023-03-03T09:09:42;99786.25;;;12.34;53.03
9893;BME280;4985;49.092;8.542;2023-03-03T09:12:14;99788.88;;;12.34;53.02
9893;BME280;4985;49.092;8.542;2023-03-03T09:14:42;99783.59;;;12.34;53.03
9893;BME280;4985;49.092;8.542;2023-03-03T09:17:24;99789.88;;;12.33;53.03
9893;BME280;4985;49.092;8.542;2023-03-03T09:19:51;99792.50;;;12.33;53.04
9893;BME280;4985;49.092;8.542;2023-03-03T09:22:21;99798.62;;;12.34;53.06
9893;BME280;4985;49.092;8.542;2023-03-03T09:24:49;99798.62;;;12.34;53.02
9893;BME280;4985;49.092;8.542;2023-03-03T09:27:24;99798.78;;;12.32;53.05
9893;BME280;4985;49.092;8.542;2023-03-03T09:29:52;99801.25;;;12.34;53.04
9893;BME280;4985;49.092;8.542;2023-03-03T09:32:25;99794.16;;;12.34;53.06
9893;BME280;4985;49.092;8.542;2023-03-03T09:34:53;99793.34;;;12.34;53.05
9893;BME280;4985;49.092;8.542;2023-03-03T09:37:23;99793.34;;;12.34;53.06
9893;BME280;4985;49.092;8.542;2023-03-03T09:39:53;99802.06;;;12.34;53.07
9893;BME280;4985;49.092;8.542;2023-03-03T09:42:45;99801.41;;;12.32;53.10
9893;BME280;4985;49.092;8.542;2023-03-03T09:45:28;99792.50;;;12.33;53.08
9893;BME280;4985;49.092;8.542;2023-03-03T09:48:11;99802.25;;;12.33;53.08
9893;BME280;4985;49.092;8.542;2023-03-03T09:50:48;99804.88;;;12.33;53.11
9893;BME280;4985;49.092;8.542;2023-03-03T09:53:31;99804.88;;;12.33;53.13
9893;BME280;4985;49.092;8.542;2023-03-03T09:56:08;99805.06;;;12.31;53.13
9893;BME280;4985;49.092;8.542;2023-03-03T09:58:52;99809.50;;;12.31;53.14
9893;BME280;4985;49.092;8.542;2023-03-03T10:01:38;99812.16;;;12.31;53.15
9893;BME280;4985;49.092;8.542;2023-03-03T10:07:19;99811.00;;;12.33;53.13
9893;BME280;4985;49.092;8.542;2023-03-03T10:10:10;99811.81;;;12.34;53.09
9893;BME280;4985;49.092;8.542;2023-03-03T10:12:45;99816.13;;;12.35;53.08
9893;BME280;4985;49.092;8.542;2023-03-03T10:15:20;99811.97;;;12.32;53.06
9893;BME280;4985;49.092;8.542;2023-03-03T10:17:51;99811.69;;;12.35;53.04
9893;BME280;4985;49.092;8.542;2023-03-03T10:20:29;99817.78;;;12.36;53.05
9893;BME280;4985;49.092;8.542;2023-03-03T10:23:05;99810.69;;;12.36;53.05
9893;BME280;4985;49.092;8.542;2023-03-03T10:25:39;99818.59;;;12.36;53.06
9893;BME280;4985;49.092;8.542;2023-03-03T10:28:30;99806.41;;;12.35;53.04
9893;BME280;4985;49.092;8.542;2023-03-03T10:31:09;99809.87;;;12.36;53.06
9893;BME280;4985;49.092;8.542;2023-03-03T10:33:46;99809.87;;;12.36;53.08
9893;BME280;4985;49.092;8.542;2023-03-03T10:36:33;99809.03;;;12.35;53.08
9893;BME280;4985;49.092;8.542;2023-03-03T10:39:29;99802.78;;;12.36;53.07
9893;BME280;4985;49.092;8.542;2023-03-03T10:42:15;99808.34;;;12.33;53.10
9893;BME280;4985;49.092;8.542;2023-03-03T10:44:59;99814.44;;;12.34;53.12
9893;BME280;4985;49.092;8.542;2023-03-03T10:47:41;99810.00;;;12.34;53.11
9893;BME280;4985;49.092;8.542;2023-03-03T10:50:15;99810.00;;;12.34;53.11
9893;BME280;4985;49.092;8.542;2023-03-03T10:52:49;99809.16;;;12.34;53.10
9893;BME280;4985;49.092;8.542;2023-03-03T10:55:34;99812.63;;;12.34;53.10
9893;BME280;4985;49.092;8.542;2023-03-03T11:01:08;99817.91;;;12.34;53.12
9893;BME280;4985;49.092;8.542;2023-03-03T11:04:05;99827.66;;;12.34;53.13
9893;BME280;4985;49.092;8.542;2023-03-03T11:06:44;99819.72;;;12.34;53.15
9893;BME280;4985;49.092;8.542;2023-03-03T11:09:23;99820.56;;;12.34;53.16
9893;BME280;4985;49.092;8.542;2023-03-03T11:11:56;99823.06;;;12.36;53.15
9893;BME280;4985;49.092;8.542;2023-03-03T11:14:28;99816.97;;;12.35;53.13
9893;BME280;4985;49.092;8.542;2023-03-03T11:17:03;99831.97;;;12.35;53.15
9893;BME280;4985;49.092;8.542;2023-03-03T11:19:51;99829.34;;;12.35;53.16
9893;BME280;4985;49.092;8.542;2023-03-03T11:22:31;99822.25;;;12.35;53.16
9893;BME280;4985;49.092;8.542;2023-03-03T11:25:04;99821.41;;;12.35;53.16
9893;BME280;4985;49.092;8.542;2023-03-03T11:27:46;99814.44;;;12.34;53.17
9893;BME280;4985;49.092;8.542;2023-03-03T11:30:28;99809.16;;;12.34;53.16
9893;BME280;4985;49.092;8.542;2023-03-03T11:33:02;99811.69;;;12.35;53.17
9893;BME280;4985;49.092;8.542;2023-03-03T11:35:37;99803.91;;;12.34;53.19
9893;BME280;4985;49.092;8.542;2023-03-03T11:38:29;99809.16;;;12.34;53.19
9893;BME280;4985;49.092;8.542;2023-03-03T11:40:59;99798.62;;;12.34;53.22
9893;BME280;4985;49.092;8.542;2023-03-03T11:43:31;99794.66;;;12.30;53.22
9893;BME280;4985;49.092;8.542;2023-03-03T11:46:03;99795.97;;;12.34;53.24
9893;BME280;4985;49.092;8.542;2023-03-03T11:48:37;99791.69;;;12.33;53.22
9893;BME280;4985;49.092;8.542;2023-03-03T11:51:06;99789.72;;;12.35;53.23
9893;BME280;4985;49.092;8.542;2023-03-03T11:53:42;99785.28;;;12.35;53.21
9893;BME280;4985;49.092;8.542;2023-03-03T11:56:18;99786.09;;;12.36;53.21
9893;BME280;4985;49.092;8.542;2023-03-03T11:58:51;99793.03;;;12.37;53.18
9893;BME280;4985;49.092;8.542;2023-03-03T12:01:22;99780.81;;;12.36;53.16
9893;BME280;4985;49.092;8.542;2023-03-03T12:03:55;99784.12;;;12.38;53.16
9893;BME280;4985;49.092;8.542;2023-03-03T12:06:32;99777.84;;;12.39;53.16
9893;BME280;4985;49.092;8.542;2023-03-03T12:09:25;99776.19;;;12.38;53.16
9893;BME280;4985;49.092;8.542;2023-03-03T12:12:02;99776.03;;;12.39;53.16
9893;BME280;4985;49.092;8.542;2023-03-03T12:14:53;99768.12;;;12.39;53.17
9893;BME280;4985;49.092;8.542;2023-03-03T12:17:45;99772.41;;;12.40;53.17
9893;BME280;4985;49.092;8.542;2023-03-03T12:20:24;99762.00;;;12.39;53.18
9893;BME280;4985;49.092;8.542;2023-03-03T12:23:06;99766.28;;;12.40;53.19
9893;BME280;4985;49.092;8.542;2023-03-03T12:25:38;99762.00;;;12.39;53.22
9893;BME280;4985;49.092;8.542;2023-03-03T12:28:09;99765.47;;;12.39;53.26
9893;BME280;4985;49.092;8.542;2023-03-03T12:31:05;99761.19;;;12.38;53.27
9893;BME280;4985;49.092;8.542;2023-03-03T12:33:50;99758.38;;;12.40;53.24
9893;BME280;4985;49.092;8.542;2023-03-03T12:39:12;99750.44;;;12.40;53.25
9893;BME280;4985;49.092;8.542;2023-03-03T12:41:44;99759.03;;;12.42;53.24
9893;BME280;4985;49.092;8.542;2023-03-03T12:44:19;99754.41;;;12.44;53.22
9893;BME280;4985;49.092;8.542;2023-03-03T12:46:56;99750.63;;;12.46;53.17
9893;BME280;4985;49.092;8.542;2023-03-03T12:49:33;99755.09;;;12.46;53.16
9893;BME280;4985;49.092;8.542;2023-03-03T12:52:12;99745.34;;;12.46;53.14
9893;BME280;4985;49.092;8.542;2023-03-03T12:54:51;99747.19;;;12.46;53.16
9893;BME280;4985;49.092;8.542;2023-03-03T12:57:24;99749.81;;;12.46;53.16
9893;BME280;4985;49.092;8.542;2023-03-03T13:00:13;99753.28;;;12.46;53.15
9893;BME280;4985;49.092;8.542;2023-03-03T13:02:48;99742.84;;;12.45;53.17
9893;BME280;4985;49.092;8.542;2023-03-03T13:05:23;99748.81;;;12.47;53.18
9893;BME280;4985;49.092;8.542;2023-03-03T13:08:05;99746.50;;;12.44;53.17
9893;BME280;4985;49.092;8.542;2023-03-03T13:10:40;99752.94;;;12.49;53.14
9893;BME280;4985;49.092;8.542;2023-03-03T13:13:17;99751.13;;;12.50;53.14
9893;BME280;4985;49.092;8.542;2023-03-03T13:15:57;99740.91;;;12.47;53.16
9893;BME280;4985;49.092;8.542;2023-03-03T13:18:37;99744.19;;;12.49;53.20
9893;BME280;4985;49.092;8.542;2023-03-03T13:21:13;99742.37;;;12.49;53.19
9893;BME280;4985;49.092;8.542;2023-03-03T13:23:50;99747.31;;;12.52;53.14
9893;BME280;4985;49.092;8.542;2023-03-03T13:26:21;99737.59;;;12.53;53.12
9893;BME280;4985;49.092;8.542;2023-03-03T13:28:57;99744.50;;;12.54;53.12
9893;BME280;4985;49.092;8.542;2023-03-03T13:31:29;99732.66;;;12.50;53.10
9893;BME280;4985;49.092;8.542;2023-03-03T13:33:58;99741.72;;;12.56;53.09
9893;BME280;4985;49.092;8.542;2023-03-03T13:36:30;99739.88;;;12.56;53.11
9893;BME280;4985;49.092;8.542;2023-03-03T13:39:10;99736.44;;;12.56;53.10
9893;BME280;4985;49.092;8.542;2023-03-03T13:41:44;99741.56;;;12.57;53.10
9893;BME280;4985;49.092;8.542;2023-03-03T13:44:19;99731.00;;;12.57;53.11
9893;BME280;4985;49.092;8.542;2023-03-03T13:46:59;99725.72;;;12.57;53.10
9893;BME280;4985;49.092;8.542;2023-03-03T13:49:46;99725.88;;;12.56;53.14
9893;BME280;4985;49.092;8.542;2023-03-03T13:52:20;99727.50;;;12.57;53.14
9893;BME280;4985;49.092;8.542;2023-03-03T13:54:59;99725.72;;;12.57;53.13